^^
Lisbon, NH - Weather Station Historical Data
Daily Summary for September 26, 2021 Units:  English    Metric   Both
Daily Weekly Monthly Yearly
  High: Low: Average:
Temperature: 67.4 °F 52.9 °F 58 °F
Dew Point: 60.3 °F 46.4 °F 52.5 °F
Humidity: 100% 48% 84%
Wind Speed: 2.4mph 0mph 0.6mph
Wind Gust: 7mph - -
Wind- - SE
Pressure: 29.86 in 29.71 in -
Precipitation: 0.01 in    
 
 
Tabular Data for September 26, 2021
Time Temperature Dew Point Pressure Wind Wind Speed Wind Gust Humidity Rainfall Rate (Hourly) solar
00:04 55 °F 55 °F 29.86 in Calm     100% 0.00 in 0 W/m2
00:09 54.8 °F 54.8 °F 29.86 in NE 0.1 mph 1 mph 100% 0.00 in 0 W/m2
00:14 54.8 °F 54.8 °F 29.86 in NE 0.6 mph 2 mph 100% 0.00 in 0 W/m2
00:19 54.7 °F 54.7 °F 29.85 in NE 0.7 mph 2 mph 100% 0.00 in 0 W/m2
00:24 54.7 °F 54.7 °F 29.85 in NE 1.3 mph 2 mph 100% 0.00 in 0 W/m2
00:29 54.6 °F 54.6 °F 29.85 in NE 1.1 mph 2 mph 100% 0.00 in 0 W/m2
00:34 54.5 °F 54.5 °F 29.85 in NE 1.4 mph 2 mph 100% 0.00 in 0 W/m2
00:39 54.4 °F 54.4 °F 29.85 in NE 1 mph 3 mph 100% 0.00 in 0 W/m2
00:44 54.3 °F 54.3 °F 29.85 in NE 1.1 mph 2 mph 100% 0.00 in 0 W/m2
00:49 54.2 °F 54.2 °F 29.85 in ENE 0.8 mph 2 mph 100% 0.00 in 0 W/m2
00:54 54.1 °F 54.1 °F 29.85 in Calm     100% 0.00 in 0 W/m2
00:59 54.1 °F 54.1 °F 29.85 in ENE 0.2 mph 2 mph 100% 0.00 in 0 W/m2
01:04 54.1 °F 54.1 °F 29.84 in NE 1.5 mph 3 mph 100% 0.00 in 0 W/m2
01:09 54.1 °F 54.1 °F 29.84 in NE 1.5 mph 3 mph 100% 0.00 in 0 W/m2
01:14 54.1 °F 54.1 °F 29.84 in ENE 1.4 mph 3 mph 100% 0.00 in 0 W/m2
01:19 53.9 °F 53.9 °F 29.83 in ENE 1 mph 2 mph 100% 0.00 in 0 W/m2
01:24 53.9 °F 53.9 °F 29.83 in ENE 1.6 mph 3 mph 100% 0.00 in 0 W/m2
01:29 53.8 °F 53.8 °F 29.83 in ENE 1.7 mph 3 mph 100% 0.00 in 0 W/m2
01:34 53.8 °F 53.8 °F 29.83 in ENE 1.8 mph 3 mph 100% 0.00 in 0 W/m2
01:39 53.8 °F 53.8 °F 29.83 in NE 1.4 mph 3 mph 100% 0.00 in 0 W/m2
01:44 53.7 °F 53.7 °F 29.83 in NE 0.5 mph 2 mph 100% 0.00 in 0 W/m2
01:49 53.8 °F 53.8 °F 29.82 in NE 0.8 mph 2 mph 100% 0.00 in 0 W/m2
01:54 53.9 °F 53.9 °F 29.82 in ENE 0.2 mph 1 mph 100% 0.00 in 0 W/m2
01:59 53.9 °F 53.9 °F 29.82 in ENE 0.1 mph 1 mph 100% 0.00 in 0 W/m2
02:04 53.9 °F 53.9 °F 29.82 in ENE 0.9 mph 2 mph 100% 0.00 in 0 W/m2
02:09 53.9 °F 53.9 °F 29.82 in ENE 0.6 mph 2 mph 100% 0.00 in 0 W/m2
02:14 53.9 °F 53.9 °F 29.82 in ENE 1 mph 2 mph 100% 0.00 in 0 W/m2
02:19 53.9 °F 53.9 °F 29.82 in ENE 1.3 mph 2 mph 100% 0.00 in 0 W/m2
02:24 53.8 °F 53.8 °F 29.82 in ENE 1.1 mph 3 mph 100% 0.00 in 0 W/m2
02:29 53.7 °F 53.7 °F 29.82 in ENE 0.6 mph 3 mph 100% 0.00 in 0 W/m2
02:34 53.6 °F 53.6 °F 29.81 in ENE 1 mph 2 mph 100% 0.00 in 0 W/m2
02:39 53.6 °F 53.6 °F 29.81 in ENE 0.1 mph 2 mph 100% 0.00 in 0 W/m2
02:44 53.6 °F 53.6 °F 29.81 in ENE 0.5 mph 1 mph 100% 0.00 in 0 W/m2
02:49 53.6 °F 53.6 °F 29.81 in ENE 0.9 mph 2 mph 100% 0.00 in 0 W/m2
02:54 53.8 °F 53.8 °F 29.81 in ENE 0.7 mph 2 mph 100% 0.00 in 0 W/m2
02:59 53.8 °F 53.8 °F 29.81 in ENE 0.7 mph 2 mph 100% 0.00 in 0 W/m2
03:04 53.8 °F 53.8 °F 29.80 in ENE 1.3 mph 2 mph 100% 0.00 in 0 W/m2
03:09 53.8 °F 53.8 °F 29.80 in NE 1.2 mph 2 mph 100% 0.00 in 0 W/m2
03:14 53.8 °F 53.8 °F 29.80 in NE 0.5 mph 2 mph 100% 0.00 in 0 W/m2
03:19 53.8 °F 53.8 °F 29.80 in ENE 0.5 mph 2 mph 100% 0.00 in 0 W/m2
03:24 53.8 °F 53.8 °F 29.80 in ENE 0.3 mph 2 mph 100% 0.00 in 0 W/m2
03:29 53.7 °F 53.7 °F 29.80 in Calm     100% 0.00 in 0 W/m2
03:34 53.6 °F 53.6 °F 29.79 in Calm     100% 0.00 in 0 W/m2
03:39 53.6 °F 53.6 °F 29.79 in Calm     100% 0.00 in 0 W/m2
03:44 53.5 °F 53.5 °F 29.79 in Calm     100% 0.00 in 0 W/m2
03:49 53.3 °F 53.3 °F 29.78 in Calm   1 mph 100% 0.00 in 0 W/m2
03:54 53.1 °F 53.1 °F 29.78 in Calm     100% 0.00 in 0 W/m2
03:59 53 °F 53 °F 29.78 in Calm     100% 0.00 in 0 W/m2
04:04 52.9 °F 52.9 °F 29.78 in Calm     100% 0.00 in 0 W/m2
04:09 52.9 °F 52.9 °F 29.78 in Calm     100% 0.00 in 0 W/m2
04:14 52.9 °F 52.9 °F 29.78 in Calm     100% 0.00 in 0 W/m2
04:19 52.9 °F 52.9 °F 29.78 in Calm   1 mph 100% 0.00 in 0 W/m2
04:24 53.1 °F 53.1 °F 29.78 in Calm   1 mph 100% 0.00 in 0 W/m2
04:29 53.2 °F 53.2 °F 29.78 in Calm     100% 0.00 in 0 W/m2
04:34 53.2 °F 53.2 °F 29.78 in ENE 0.1 mph 1 mph 100% 0.00 in 0 W/m2
04:39 53.3 °F 53.3 °F 29.78 in Calm     100% 0.00 in 0 W/m2
04:44 53.3 °F 53.3 °F 29.78 in Calm   1 mph 100% 0.00 in 0 W/m2
04:49 53.3 °F 53.3 °F 29.78 in ENE 0.4 mph 1 mph 100% 0.00 in 0 W/m2
04:54 53.3 °F 53.3 °F 29.78 in ENE 0.6 mph 1 mph 100% 0.00 in 0 W/m2
04:59 53.3 °F 53.3 °F 29.78 in ENE 1 mph 2 mph 100% 0.00 in 0 W/m2
05:04 53.3 °F 53.3 °F 29.77 in NE 1.1 mph 3 mph 100% 0.00 in 0 W/m2
05:09 53.3 °F 53.3 °F 29.77 in ENE 1.6 mph 3 mph 100% 0.00 in 0 W/m2
05:14 53.3 °F 53.3 °F 29.77 in ENE 1.5 mph 3 mph 100% 0.00 in 0 W/m2
05:19 53.2 °F 53.2 °F 29.77 in ENE 1.6 mph 3 mph 100% 0.00 in 0 W/m2
05:24 53.1 °F 53.1 °F 29.77 in ENE 0.9 mph 2 mph 100% 0.00 in 0 W/m2
05:29 53 °F 53 °F 29.77 in ENE 0.1 mph 1 mph 100% 0.00 in 0 W/m2
05:34 52.9 °F 52.9 °F 29.77 in ENE 0.2 mph 1 mph 100% 0.00 in 0 W/m2
05:39 52.9 °F 52.9 °F 29.77 in Calm   1 mph 100% 0.00 in 0 W/m2
05:44 52.9 °F 52.9 °F 29.78 in Calm     100% 0.00 in 0 W/m2
05:49 52.9 °F 52.9 °F 29.78 in Calm     100% 0.00 in 0 W/m2
05:54 52.9 °F 52.9 °F 29.78 in Calm     100% 0.00 in 0 W/m2
05:59 52.9 °F 52.9 °F 29.78 in ENE 0.2 mph 1 mph 100% 0.00 in 0 W/m2
06:04 53 °F 53 °F 29.78 in Calm   1 mph 100% 0.00 in 0 W/m2
06:09 53.1 °F 53.1 °F 29.78 in Calm     100% 0.00 in 0 W/m2
06:14 53.1 °F 53.1 °F 29.78 in Calm     100% 0.00 in 0 W/m2
06:19 53.1 °F 53.1 °F 29.78 in Calm     100% 0.00 in 0 W/m2
06:24 53.1 °F 53.1 °F 29.78 in Calm     100% 0.00 in 0 W/m2
06:29 53.1 °F 53.1 °F 29.79 in East 0.5 mph 2 mph 100% 0.00 in 0 W/m2
06:34 53.1 °F 53.1 °F 29.79 in East 0.1 mph 2 mph 100% 0.00 in 0 W/m2
06:39 53.1 °F 53.1 °F 29.79 in SE 0.1 mph 1 mph 100% 0.00 in 0 W/m2
06:44 53.1 °F 53.1 °F 29.80 in SSE 0.3 mph 2 mph 100% 0.00 in 0 W/m2
06:49 53.2 °F 53.2 °F 29.80 in Calm   1 mph 100% 0.00 in 0 W/m2
06:54 53.2 °F 53.2 °F 29.80 in Calm   1 mph 100% 0.00 in 5 W/m2
06:59 53.2 °F 53.2 °F 29.80 in Calm     100% 0.00 in 5 W/m2
07:04 53.2 °F 53.2 °F 29.80 in Calm     100% 0.00 in 7 W/m2
07:09 53.2 °F 53.2 °F 29.80 in Calm     100% 0.00 in 9 W/m2
07:14 53.3 °F 53.3 °F 29.80 in Calm     100% 0.00 in 9 W/m2
07:19 53.4 °F 53.4 °F 29.80 in Calm     100% 0.00 in 9 W/m2
07:24 53.5 °F 53.5 °F 29.80 in Calm     100% 0.00 in 11 W/m2
07:29 53.5 °F 53.5 °F 29.80 in Calm     100% 0.00 in 11 W/m2
07:34 53.5 °F 53.5 °F 29.79 in ENE 1 mph 3 mph 100% 0.00 in 12 W/m2
07:39 53.6 °F 53.6 °F 29.79 in ENE 0.6 mph 2 mph 100% 0.00 in 16 W/m2
07:44 53.7 °F 53.7 °F 29.79 in East 0.5 mph 2 mph 100% 0.00 in 18 W/m2
07:49 53.8 °F 53.8 °F 29.79 in ENE 0.6 mph 3 mph 100% 0.00 in 21 W/m2
07:54 53.8 °F 53.8 °F 29.79 in NE 0.5 mph 3 mph 100% 0.00 in 23 W/m2
07:59 53.8 °F 53.8 °F 29.79 in NE 1.5 mph 3 mph 100% 0.00 in 26 W/m2
08:04 53.9 °F 53.9 °F 29.78 in NE 0.6 mph 2 mph 100% 0.00 in 21 W/m2
08:09 53.9 °F 53.9 °F 29.78 in ENE 1.2 mph 5 mph 100% 0.00 in 26 W/m2
08:14 53.9 °F 53.9 °F 29.79 in ENE 1.3 mph 5 mph 100% 0.00 in 33 W/m2
08:19 53.8 °F 53.8 °F 29.79 in Calm   1 mph 100% 0.00 in 32 W/m2
08:24 53.8 °F 53.8 °F 29.79 in ENE 0.5 mph 2 mph 100% 0.00 in 39 W/m2
08:29 53.8 °F 53.8 °F 29.79 in Calm   1 mph 100% 0.00 in 39 W/m2
08:34 53.9 °F 53.9 °F 29.78 in Calm   1 mph 100% 0.00 in 62 W/m2
08:39 53.8 °F 53.8 °F 29.78 in Calm     100% 0.00 in 63 W/m2
08:43 53.9 °F 53.9 °F 29.78 in Calm   1 mph 100% 0.00 in 63 W/m2
08:54 54.2 °F 54.2 °F 29.78 in ESE 0.3 mph 1 mph 100% 0.01 in 384 W/m2
08:59 54.7 °F 54.7 °F 29.78 in SE 0.1 mph 1 mph 100% 0.01 in 384 W/m2
09:04 55.1 °F 55.1 °F 29.78 in SSW 0.8 mph 2 mph 100% 0.01 in 118 W/m2
09:09 55.1 °F 55.1 °F 29.78 in SW 0.7 mph 2 mph 100% 0.01 in 90 W/m2
09:14 55.2 °F 55.2 °F 29.79 in SW 0.8 mph 3 mph 100% 0.01 in 88 W/m2
09:19 55.3 °F 55.3 °F 29.79 in SW 0.7 mph 3 mph 100% 0.01 in 90 W/m2
09:24 55.4 °F 55.4 °F 29.79 in SSW 0.3 mph 2 mph 100% 0.01 in 99 W/m2
09:29 55.5 °F 55.5 °F 29.79 in South 0.7 mph 2 mph 100% 0.01 in 93 W/m2
09:34 55.6 °F 55.6 °F 29.79 in SSW 0.5 mph 2 mph 100% 0.01 in 69 W/m2
09:39 55.8 °F 55.8 °F 29.79 in SE 0.4 mph 2 mph 100% 0.01 in 111 W/m2
09:44 55.9 °F 55.9 °F 29.79 in SE 0.7 mph 2 mph 100% 0.01 in 183 W/m2
09:49 56 °F 56 °F 29.79 in East 0.6 mph 2 mph 100% 0.01 in 183 W/m2
09:54 56.3 °F 56.3 °F 29.79 in ESE 0.4 mph 1 mph 100% 0.01 in 192 W/m2
09:59 56.7 °F 56.7 °F 29.79 in East 0.4 mph 1 mph 100% 0.00 in 188 W/m2
10:04 57 °F 57 °F 29.78 in East 0.1 mph 1 mph 100% 0.00 in 218 W/m2
10:09 57.6 °F 57.6 °F 29.78 in ENE 0.8 mph 3 mph 100% 0.00 in 507 W/m2
10:14 58.5 °F 58.5 °F 29.78 in NE 1.2 mph 3 mph 100% 0.00 in 725 W/m2
10:19 59.2 °F 59.2 °F 29.77 in ENE 1.2 mph 2 mph 100% 0.00 in 303 W/m2
10:24 59.5 °F 59.5 °F 29.77 in ENE 1.3 mph 2 mph 100% 0.00 in 746 W/m2
10:29 60 °F 60 °F 29.77 in SE 0.9 mph 2 mph 100% 0.00 in 746 W/m2
10:34 60.7 °F 60.3 °F 29.77 in East 0.6 mph 2 mph 98.5% 0.00 in 734 W/m2
10:39 61.2 °F 60.2 °F 29.77 in South 1 mph 3 mph 96.5% 0.00 in 158 W/m2
10:44 61.3 °F 59.9 °F 29.77 in South 0.9 mph 3 mph 94.9% 0.00 in 114 W/m2
10:49 61.1 °F 59.1 °F 29.77 in SSW 0.8 mph 3 mph 93.4% 0.00 in 125 W/m2
10:54 60.9 °F 58.9 °F 29.77 in SW 0.2 mph 2 mph 93% 0.00 in 90 W/m2
10:59 60.7 °F 58.7 °F 29.77 in Calm     93% 0.00 in 164 W/m2
11:04 60.9 °F 58.8 °F 29.77 in Calm     93% 0.00 in 190 W/m2
11:09 61 °F 58.8 °F 29.77 in Calm     92.4% 0.00 in 296 W/m2
11:14 61.1 °F 58.4 °F 29.77 in South 0.7 mph 2 mph 90.6% 0.00 in 472 W/m2
11:19 61.4 °F 57.9 °F 29.76 in East 0.9 mph 2 mph 88.2% 0.00 in 322 W/m2
11:24 61.5 °F 57.3 °F 29.76 in SSW 1.1 mph 4 mph 86% 0.00 in 183 W/m2
11:29 61.6 °F 56.7 °F 29.76 in South 0.4 mph 4 mph 84.1% 0.00 in 160 W/m2
11:34 61.6 °F 55.5 °F 29.76 in South 0.2 mph 1 mph 80.4% 0.00 in 150 W/m2
11:39 61.8 °F 56.1 °F 29.76 in ESE 0.2 mph 1 mph 81.5% 0.00 in 151 W/m2
11:44 62 °F 55.6 °F 29.76 in SE 0.1 mph 1 mph 79.4% 0.00 in 146 W/m2
11:49 62 °F 54.7 °F 29.75 in SSE 1.2 mph 2 mph 77.1% 0.00 in 128 W/m2
11:54 61.9 °F 54.1 °F 29.75 in SSE 0.4 mph 2 mph 75.6% 0.00 in 114 W/m2
11:59 61.9 °F 53.8 °F 29.76 in ESE 0.3 mph 2 mph 74.7% 0.00 in 97 W/m2
12:04 61.8 °F 54 °F 29.76 in SSW 1 mph 3 mph 75.6% 0.00 in 67 W/m2
12:09 61.3 °F 52.2 °F 29.76 in SSE 0.8 mph 2 mph 72% 0.00 in 63 W/m2
12:14 60.9 °F 51.2 °F 29.76 in WSW 0.9 mph 5 mph 70.3% 0.00 in 69 W/m2
12:19 60.6 °F 50.9 °F 29.76 in SW 0.8 mph 5 mph 70.3% 0.00 in 69 W/m2
12:24 60.4 °F 50.5 °F 29.76 in Calm   5 mph 69.7% 0.00 in 63 W/m2
12:29 60.2 °F 50.3 °F 29.76 in SW 0.3 mph 2 mph 69.7% 0.00 in 76 W/m2
12:34 60 °F 49.6 °F 29.76 in WNW 0.5 mph 2 mph 68.5% 0.00 in 100 W/m2
12:39 60 °F 50 °F 29.76 in SE 0.1 mph 1 mph 69.5% 0.00 in 118 W/m2
12:44 60.1 °F 50.2 °F 29.76 in Calm   1 mph 69.7% 0.00 in 141 W/m2
12:49 60.1 °F 50.4 °F 29.75 in SE 0.7 mph 2 mph 70.1% 0.00 in 234 W/m2
12:54 60.3 °F 49.7 °F 29.75 in ESE 1.2 mph 3 mph 68% 0.00 in 864 W/m2
12:59 61.7 °F 50.6 °F 29.75 in ENE 2.4 mph 6 mph 67% 0.00 in 869 W/m2
13:04 63.1 °F 50.5 °F 29.75 in ENE 1.7 mph 6 mph 63.5% 0.00 in 818 W/m2
13:09 63.8 °F 50.5 °F 29.75 in ESE 1.5 mph 6 mph 61.8% 0.00 in 797 W/m2
13:14 64.5 °F 51.1 °F 29.75 in NE 1.2 mph 4 mph 61.8% 0.00 in 830 W/m2
13:19 64.9 °F 50.9 °F 29.74 in WSW 0.8 mph 3 mph 60.6% 0.00 in 830 W/m2
13:24 65.3 °F 50.8 °F 29.74 in NNW 0.8 mph 3 mph 59.4% 0.00 in 876 W/m2
13:29 65.6 °F 50.5 °F 29.74 in NNE 1.1 mph 3 mph 58.1% 0.00 in 834 W/m2
13:34 65.8 °F 50.8 °F 29.74 in SSE 0.5 mph 2 mph 58.3% 0.00 in 834 W/m2
13:39 66 °F 51.1 °F 29.74 in SW 0.2 mph 2 mph 58.7% 0.00 in 808 W/m2
13:44 66.4 °F 50.4 °F 29.74 in West 1.8 mph 5 mph 56.3% 0.00 in 753 W/m2
13:49 66.4 °F 49.7 °F 29.73 in South 1.9 mph 6 mph 54.9% 0.00 in 730 W/m2
13:54 66.8 °F 50.3 °F 29.73 in SSW 1.7 mph 6 mph 55.4% 0.00 in 723 W/m2
13:59 67.3 °F 49.6 °F 29.73 in West 1.1 mph 6 mph 53% 0.00 in 721 W/m2
14:04 67.4 °F 48.4 °F 29.73 in NNE 0.9 mph 3 mph 50.6% 0.00 in 394 W/m2
14:09 67.1 °F 48.3 °F 29.73 in SW 1.3 mph 5 mph 50.9% 0.00 in 259 W/m2
14:14 66.9 °F 47.1 °F 29.73 in North 1 mph 5 mph 49% 0.00 in 259 W/m2
14:19 67.1 °F 47.2 °F 29.73 in North 0.9 mph 5 mph 48.7% 0.00 in 317 W/m2
14:24 67.4 °F 48.5 °F 29.73 in NNW 1.1 mph 5 mph 50.8% 0.00 in 274 W/m2
14:29 67.3 °F 47.6 °F 29.73 in NNE 1.7 mph 5 mph 49.1% 0.00 in 172 W/m2
14:34 67.3 °F 47.7 °F 29.72 in ENE 1.2 mph 3 mph 49.4% 0.00 in 172 W/m2
14:39 67.1 °F 46.8 °F 29.72 in ENE 0.7 mph 2 mph 48% 0.00 in 164 W/m2
14:44 66.8 °F 46.5 °F 29.72 in NE 0.1 mph 1 mph 48% 0.00 in 195 W/m2
14:49 66.6 °F 47.3 °F 29.72 in ESE 1.3 mph 3 mph 49.8% 0.00 in 190 W/m2
14:54 66.7 °F 48.3 °F 29.72 in SE 1.1 mph 3 mph 51.4% 0.00 in 107 W/m2
14:59 66.4 °F 47.8 °F 29.72 in WSW 0.9 mph 3 mph 51.2% 0.00 in 86 W/m2
15:04 65.9 °F 48.2 °F 29.72 in NW 1.2 mph 4 mph 52.7% 0.00 in 106 W/m2
15:09 65.4 °F 48.5 °F 29.72 in East 1.1 mph 3 mph 54.3% 0.00 in 113 W/m2
15:14 65.1 °F 48.2 °F 29.72 in SSE 0.5 mph 2 mph 54.4% 0.00 in 141 W/m2
15:19 64.8 °F 47.6 °F 29.71 in ESE 1.9 mph 5 mph 53.6% 0.00 in 211 W/m2
15:24 65.2 °F 47.6 °F 29.71 in East 1.6 mph 6 mph 53% 0.00 in 99 W/m2
15:29 65.5 °F 47.3 °F 29.71 in NE 2 mph 6 mph 51.6% 0.00 in 120 W/m2
15:34 65.6 °F 47.5 °F 29.71 in East 1.9 mph 6 mph 52% 0.00 in 127 W/m2
15:39 65.8 °F 46.8 °F 29.71 in NW 1.4 mph 7 mph 50.2% 0.00 in 107 W/m2
15:44 65.8 °F 46.5 °F 29.71 in SE 0.4 mph 2 mph 49.6% 0.00 in 114 W/m2
15:49 65.9 °F 47.5 °F 29.71 in South 1.6 mph 5 mph 51.4% 0.00 in 127 W/m2
15:54 66 °F 46.9 °F 29.71 in North 1.9 mph 5 mph 50.1% 0.00 in 118 W/m2
15:59 66.1 °F 47.8 °F 29.71 in East 1 mph 5 mph 51.6% 0.00 in 91 W/m2
16:04 66 °F 47.4 °F 29.71 in NNW 1.5 mph 6 mph 51% 0.00 in 58 W/m2
16:09 65.8 °F 46.4 °F 29.71 in NNW 1.8 mph 6 mph 49.4% 0.00 in 46 W/m2
16:14 65.6 °F 46.6 °F 29.71 in ESE 1 mph 3 mph 50.2% 0.00 in 46 W/m2
16:19 65.5 °F 46.4 °F 29.71 in North 1.5 mph 3 mph 50.2% 0.00 in 60 W/m2
16:24 65.3 °F 47.3 °F 29.71 in SSW 0.8 mph 3 mph 52.1% 0.00 in 40 W/m2
16:29 65.2 °F 48 °F 29.71 in SW 0.8 mph 2 mph 53.6% 0.00 in 39 W/m2
16:34 65.1 °F 48.6 °F 29.71 in SW 0.3 mph 2 mph 55.1% 0.00 in 37 W/m2
16:39 64.9 °F 48.4 °F 29.71 in SW 0.3 mph 3 mph 55% 0.00 in 32 W/m2
16:44 64.8 °F 48.5 °F 29.72 in SW 0.5 mph 3 mph 55.5% 0.00 in 33 W/m2
16:49 64.7 °F 47.6 °F 29.72 in SSW 0.3 mph 2 mph 53.9% 0.00 in 32 W/m2
16:54 64.5 °F 47.5 °F 29.72 in SW 0.7 mph 2 mph 53.9% 0.00 in 33 W/m2
16:59 64.4 °F 48.3 °F 29.72 in SSW 0.2 mph 2 mph 55.8% 0.00 in 33 W/m2
17:04 64.3 °F 48.6 °F 29.72 in West 0.2 mph 1 mph 56.7% 0.00 in 40 W/m2
17:09 64.1 °F 49.8 °F 29.72 in WSW 0.9 mph 3 mph 59.5% 0.00 in 40 W/m2
17:14 63.8 °F 49.1 °F 29.72 in NW 0.5 mph 3 mph 58.8% 0.00 in 32 W/m2
17:19 63.5 °F 48 °F 29.72 in SW 0.2 mph 1 mph 57% 0.00 in 28 W/m2
17:24 63.4 °F 49.2 °F 29.72 in WSW 0.5 mph 2 mph 59.8% 0.00 in 25 W/m2
17:29 63.1 °F 49.9 °F 29.72 in SW 0.4 mph 2 mph 62.1% 0.00 in 35 W/m2
17:34 62.5 °F 49.3 °F 29.72 in WSW 0.4 mph 2 mph 61.8% 0.00 in 35 W/m2
17:39 62.1 °F 50 °F 29.72 in WSW 0.4 mph 2 mph 64.5% 0.00 in 33 W/m2
17:44 61.7 °F 49.9 °F 29.73 in Calm   1 mph 65.1% 0.00 in 26 W/m2
17:49 61.3 °F 50.1 °F 29.73 in Calm     66.6% 0.00 in 37 W/m2
17:54 61 °F 49.5 °F 29.73 in WSW 0.3 mph 2 mph 65.8% 0.00 in 39 W/m2
17:59 60.9 °F 49.9 °F 29.74 in West 0.2 mph 2 mph 67% 0.00 in 35 W/m2
18:04 60.6 °F 50.6 °F 29.74 in WSW 0.5 mph 3 mph 69.4% 0.00 in 30 W/m2
18:09 60.4 °F 50.8 °F 29.74 in West 0.6 mph 2 mph 70.4% 0.00 in 23 W/m2
18:14 60.2 °F 50.9 °F 29.74 in Calm   2 mph 71.6% 0.00 in 21 W/m2
18:19 60 °F 51.4 °F 29.74 in Calm     73.3% 0.00 in 21 W/m2
18:24 59.6 °F 51.6 °F 29.74 in Calm     74.6% 0.00 in 12 W/m2
18:29 59.2 °F 51.5 °F 29.75 in Calm     75.8% 0.00 in 9 W/m2
18:34 58.7 °F 51.5 °F 29.75 in Calm     77% 0.00 in 7 W/m2
18:39 58.2 °F 51.5 °F 29.75 in Calm     78.4% 0.00 in 5 W/m2
18:44 57.7 °F 51.5 °F 29.75 in Calm     80% 0.00 in 5 W/m2
18:49 57.2 °F 51.8 °F 29.75 in Calm     82% 0.00 in 0 W/m2
18:54 56.7 °F 51.4 °F 29.75 in Calm     82.3% 0.00 in 0 W/m2
18:59 56.3 °F 51.4 °F 29.76 in Calm     83.4% 0.00 in 0 W/m2
19:04 55.9 °F 51.6 °F 29.76 in Calm     85.3% 0.00 in 0 W/m2
19:09 55.6 °F 51.5 °F 29.76 in Calm     86% 0.00 in 0 W/m2
19:14 55.3 °F 51.4 °F 29.76 in Calm     86.6% 0.00 in 0 W/m2
19:19 55 °F 51.4 °F 29.76 in Calm     87.4% 0.00 in 0 W/m2
19:24 54.8 °F 51.3 °F 29.76 in Calm     88% 0.00 in 0 W/m2
19:29 54.6 °F 51.4 °F 29.77 in Calm     89% 0.00 in 0 W/m2
19:34 54.4 °F 51.3 °F 29.77 in Calm     89% 0.00 in 0 W/m2
19:39 54.3 °F 51.5 °F 29.77 in Calm   1 mph 90.2% 0.00 in 0 W/m2
19:44 54.2 °F 51.6 °F 29.77 in SW 0.2 mph 2 mph 91% 0.00 in 0 W/m2
Lisbon, New Hampshire, USA
Compliments of Weather Underground - 3.75 mb